Time;durP1;ratioP1;P1;durP2;ratioP2;P2;SDS_P1;SDS_P2;PMS_P1;PMS_P2;Temp;Humidity;BMP_temperature;BMP_pressure;BME280_temperature;BME280_humidity;BME280_pressure;Samples;Min_cycle;Max_cycle;Signal;HPM_P1;HPM_P2
2023/07/28 00:02:10;;;;;;;;;;;18.10;55.00;;;14.04;100.00;94967.69;4959740;28;19910;-51
2023/07/28 00:04:37;;;;;;;;;;;18.10;55.10;;;14.06;100.00;94968.16;4971517;28;19910;-51
2023/07/28 00:07:04;;;;;;;;;;;18.10;55.20;;;14.09;100.00;94959.53;4963218;28;19949;-53
2023/07/28 00:09:30;;;;;;;;;;;18.10;55.20;;;14.13;100.00;94957.03;4976629;28;20338;-48
2023/07/28 00:12:00;;;;;;;;;;;18.10;55.30;;;14.20;100.00;94962.81;4971744;28;20004;-50
2023/07/28 00:14:27;;;;;;;;;;;18.10;55.40;;;14.27;100.00;94968.53;4967554;28;19918;-50
2023/07/28 00:16:56;;;;;;;;;;;18.10;55.50;;;14.37;100.00;94964.03;4975274;28;19952;-50
2023/07/28 00:19:22;;;;;;;;;;;18.20;55.60;;;14.41;100.00;94956.97;4976210;28;19956;-53
2023/07/28 00:21:49;;;;;;;;;;;18.20;55.50;;;14.41;100.00;94955.06;4976202;28;19957;-46
2023/07/28 00:24:17;;;;;;;;;;;18.30;55.50;;;14.36;100.00;94949.84;4975084;28;19914;-48
2023/07/28 00:26:42;;;;;;;;;;;18.30;55.50;;;14.45;100.00;94944.56;4976256;28;20137;-47
2023/07/28 00:29:08;;;;;;;;;;;18.30;55.50;;;14.50;100.00;94949.78;4975058;28;19941;-45
2023/07/28 00:31:34;;;;;;;;;;;18.40;55.60;;;14.49;100.00;94932.13;4963182;28;19920;-48
2023/07/28 00:34:02;;;;;;;;;;;18.40;55.50;;;14.50;100.00;94933.72;4990068;28;19913;-49
2023/07/28 00:36:28;;;;;;;;;;;18.40;55.60;;;14.50;100.00;94926.44;4976015;28;19972;-49
2023/07/28 00:38:54;;;;;;;;;;;18.40;55.50;;;14.47;100.00;94923.59;4976009;28;20327;-51
2023/07/28 00:41:19;;;;;;;;;;;18.50;56.10;;;14.48;100.00;94927.88;4974961;28;19910;-48
2023/07/28 00:43:48;;;;;;;;;;;18.50;55.60;;;14.47;100.00;94927.06;4975857;28;19917;-52
2023/07/28 00:46:15;;;;;;;;;;;18.50;55.50;;;14.46;100.00;94930.84;4974181;28;19929;-47
2023/07/28 00:48:42;;;;;;;;;;;18.50;55.60;;;14.45;100.00;94923.91;4975743;28;19956;-50
2023/07/28 00:51:09;;;;;;;;;;;18.50;55.60;;;14.44;100.00;94927.66;4971251;28;19910;-48
2023/07/28 00:53:35;;;;;;;;;;;18.50;55.60;;;14.44;100.00;94929.56;4982984;28;20345;-49
2023/07/28 00:56:05;;;;;;;;;;;18.50;55.60;;;14.44;100.00;94932.25;4975628;28;19961;-47
2023/07/28 00:58:31;;;;;;;;;;;18.60;55.60;;;14.43;100.00;94933.34;4974017;28;19910;-52
2023/07/28 01:00:57;;;;;;;;;;;18.60;55.60;;;14.43;100.00;94928.78;4969119;28;20008;-47
2023/07/28 01:03:24;;;;;;;;;;;18.60;55.60;;;14.43;100.00;94934.13;4969037;28;20016;-47
2023/07/28 01:06:18;;;;;;;;;;;18.60;55.60;;;14.45;100.00;94931.16;4959604;28;19988;-47
2023/07/28 01:09:01;;;;;;;;;;;18.60;55.60;;;14.40;100.00;94924.03;4967655;28;20261;-53
2023/07/28 01:11:28;;;;;;;;;;;18.60;55.60;;;14.38;100.00;94930.78;4967035;28;19909;-51
2023/07/28 01:13:54;;;;;;;;;;;18.60;55.60;;;14.34;100.00;94930.59;4975173;28;20399;-51
2023/07/28 01:16:20;;;;;;;;;;;18.60;55.60;;;14.29;100.00;94928.84;4974264;28;19909;-51
2023/07/28 01:18:45;;;;;;;;;;;18.50;55.60;;;14.26;100.00;94928.66;4974462;28;19917;-51
2023/07/28 01:21:22;;;;;;;;;;;18.50;55.60;;;14.25;100.00;94935.09;4975221;28;19916;-54
2023/07/28 01:24:03;;;;;;;;;;;18.50;55.70;;;14.24;100.00;94931.63;4961245;28;20013;-53
2023/07/28 01:26:37;;;;;;;;;;;18.50;55.80;;;14.25;100.00;94935.88;4972221;28;19909;-52
2023/07/28 01:29:04;;;;;;;;;;;18.50;55.80;;;14.26;100.00;94937.47;4974636;28;19913;-49
2023/07/28 01:31:30;;;;;;;;;;;18.50;55.90;;;14.26;100.00;94934.81;4987085;28;20376;-52
2023/07/28 01:33:56;;;;;;;;;;;18.50;55.90;;;14.27;100.00;94935.59;4966851;28;19909;-52
2023/07/28 01:36:22;;;;;;;;;;;18.50;55.90;;;14.29;100.00;94936.06;4974187;28;19910;-51
2023/07/28 01:38:48;;;;;;;;;;;18.60;56.00;;;14.29;100.00;94923.47;4975103;28;20383;-49
2023/07/28 01:41:14;;;;;;;;;;;18.50;55.90;;;14.36;100.00;94923.06;4974066;28;19914;-49
2023/07/28 01:43:41;;;;;;;;;;;18.60;56.00;;;14.36;100.00;94925.75;4974898;28;19910;-52
2023/07/28 01:46:07;;;;;;;;;;;18.60;56.00;;;14.38;100.00;94922.75;4973994;28;20017;-44
2023/07/28 01:48:34;;;;;;;;;;;18.60;56.10;;;14.40;100.00;94928.59;4974894;28;19924;-46
2023/07/28 01:50:59;;;;;;;;;;;18.60;56.10;;;14.40;100.00;94928.59;4974585;28;19914;-45
2023/07/28 01:53:25;;;;;;;;;;;18.60;56.00;;;14.39;100.00;94921.66;4984088;28;19936;-45
2023/07/28 01:55:51;;;;;;;;;;;18.60;56.00;;;14.40;100.00;94934.75;4975883;28;19914;-46
2023/07/28 01:58:17;;;;;;;;;;;18.60;56.10;;;14.42;100.00;94940.59;4973671;28;19916;-43
2023/07/28 02:00:42;;;;;;;;;;;18.70;56.10;;;14.44;100.00;94941.06;4969562;28;19914;-49
2023/07/28 02:03:08;;;;;;;;;;;18.70;56.10;;;14.45;100.00;94952.59;4966754;28;19952;-50
2023/07/28 02:05:34;;;;;;;;;;;18.70;56.10;;;14.42;100.00;94945.97;4979826;28;19910;-49
2023/07/28 02:08:00;;;;;;;;;;;18.60;56.10;;;14.41;100.00;94947.03;4974146;28;20337;-50
2023/07/28 02:10:29;;;;;;;;;;;18.60;56.00;;;14.41;100.00;94949.72;4973659;28;19910;-52
2023/07/28 02:12:55;;;;;;;;;;;18.60;56.00;;;14.41;100.00;94955.06;4974381;28;19910;-49
2023/07/28 02:15:21;;;;;;;;;;;18.60;56.10;;;14.39;100.00;94959.97;4974050;28;19971;-50
2023/07/28 02:17:47;;;;;;;;;;;18.60;56.20;;;14.37;100.00;94966.72;4973280;28;19910;-43
2023/07/28 02:20:15;;;;;;;;;;;18.50;56.20;;;14.30;100.00;94962.56;4974402;28;19914;-45
2023/07/28 02:22:42;;;;;;;;;;;18.50;56.20;;;14.32;100.00;94971.09;4973369;28;19937;-44
2023/07/28 02:25:09;;;;;;;;;;;18.50;56.30;;;14.30;100.00;94969.81;4960885;28;19916;-44
2023/07/28 02:27:37;;;;;;;;;;;18.50;56.30;;;14.32;100.00;94981.00;4974149;28;19910;-43
2023/07/28 02:30:04;;;;;;;;;;;18.50;56.30;;;14.30;100.00;94989.34;4972212;28;20012;-45
2023/07/28 02:32:31;;;;;;;;;;;18.50;56.40;;;14.29;100.00;95003.03;4973842;28;19914;-45
2023/07/28 02:34:57;;;;;;;;;;;18.50;56.40;;;14.30;100.00;95010.78;4967222;28;20004;-45
2023/07/28 02:37:24;;;;;;;;;;;18.50;56.40;;;14.37;100.00;95009.56;4954690;28;20012;-44
2023/07/28 02:39:50;;;;;;;;;;;18.50;56.50;;;14.41;100.00;95003.28;4973837;28;19910;-43
2023/07/28 02:42:16;;;;;;;;;;;18.60;56.60;;;14.45;100.00;94998.16;4960086;28;20008;-45
2023/07/28 02:44:42;;;;;;;;;;;18.60;56.60;;;14.46;100.00;95010.44;4973103;28;19924;-48
2023/07/28 02:47:07;;;;;;;;;;;18.60;56.50;;;14.39;100.00;95018.13;4972216;28;20436;-48
2023/07/28 02:49:33;;;;;;;;;;;18.60;56.60;;;14.46;100.00;95015.81;4975619;28;20008;-43
2023/07/28 02:51:59;;;;;;;;;;;18.60;56.60;;;14.47;100.00;95009.34;4973759;28;19909;-43
2023/07/28 02:54:25;;;;;;;;;;;18.60;56.60;;;14.48;100.00;95016.31;4965414;28;19914;-44
2023/07/28 02:56:51;;;;;;;;;;;18.60;56.60;;;14.46;100.00;95031.88;4967067;28;20345;-46
2023/07/28 02:59:18;;;;;;;;;;;18.50;57.20;;;14.42;100.00;95034.38;4966149;28;19917;-47
2023/07/28 03:01:43;;;;;;;;;;;18.50;56.70;;;14.37;100.00;95047.09;4973468;28;20012;-49
2023/07/28 03:04:09;;;;;;;;;;;18.50;56.70;;;14.32;100.00;95047.97;4959251;28;20431;-45
2023/07/28 03:06:35;;;;;;;;;;;18.50;56.80;;;14.23;100.00;95049.81;4960658;28;19916;-43
2023/07/28 03:09:01;;;;;;;;;;;18.40;56.80;;;14.22;100.00;95050.88;4973129;28;19952;-44
2023/07/28 03:11:26;;;;;;;;;;;18.30;56.90;;;14.16;100.00;95055.53;4972322;28;19916;-43
2023/07/28 03:13:52;;;;;;;;;;;18.30;57.00;;;14.14;100.00;95055.06;4960097;28;19913;-44
2023/07/28 03:16:18;;;;;;;;;;;18.20;57.00;;;14.09;100.00;95050.59;4972314;28;19963;-48
2023/07/28 03:18:43;;;;;;;;;;;18.20;57.10;;;14.01;100.00;95045.94;4971863;28;19914;-43
2023/07/28 03:21:10;;;;;;;;;;;18.10;57.20;;;14.04;100.00;95052.56;4973348;28;19913;-46
2023/07/28 03:23:36;;;;;;;;;;;18.10;57.40;;;14.02;100.00;95054.78;4977574;28;20379;-47
2023/07/28 03:26:02;;;;;;;;;;;18.10;57.40;;;13.96;100.00;95055.97;4973149;28;20000;-46
2023/07/28 03:28:27;;;;;;;;;;;18.00;57.50;;;13.88;100.00;95062.78;4972236;28;20396;-44
2023/07/28 03:30:53;;;;;;;;;;;18.00;58.20;;;13.80;100.00;95058.16;4973171;28;19909;-47
2023/07/28 03:33:19;;;;;;;;;;;17.90;57.60;;;13.78;100.00;95053.06;4973032;28;19910;-46
2023/07/28 03:35:44;;;;;;;;;;;17.90;57.70;;;13.74;100.00;95060.13;4970203;28;19914;-46
2023/07/28 03:38:10;;;;;;;;;;;17.80;57.80;;;13.63;100.00;95054.19;4960224;28;19945;-44
2023/07/28 03:40:36;;;;;;;;;;;17.80;57.80;;;13.59;100.00;95060.41;4964744;28;19910;-44
2023/07/28 03:43:02;;;;;;;;;;;17.80;57.90;;;13.63;100.00;95062.22;4962802;28;19917;-47
2023/07/28 03:45:28;;;;;;;;;;;17.70;58.00;;;13.59;100.00;95053.16;4975455;28;20269;-44
2023/07/28 03:47:54;;;;;;;;;;;17.70;58.10;;;13.56;100.00;95056.44;4969540;28;19910;-45
2023/07/28 03:50:20;;;;;;;;;;;17.70;58.20;;;13.50;100.00;95062.97;4970579;28;20067;-45
2023/07/28 03:52:46;;;;;;;;;;;17.70;58.30;;;13.47;100.00;95060.09;4966884;28;20416;-45
2023/07/28 03:55:12;;;;;;;;;;;17.60;58.30;;;13.44;100.00;95053.44;4970346;28;19914;-44
2023/07/28 03:57:38;;;;;;;;;;;17.60;58.40;;;13.40;100.00;95057.81;4970197;28;19910;-46
2023/07/28 04:00:06;;;;;;;;;;;17.50;58.40;;;13.37;100.00;95053.03;4959506;28;20327;-47
2023/07/28 04:02:32;;;;;;;;;;;17.50;58.50;;;13.35;100.00;95061.38;4964203;28;20415;-48
2023/07/28 04:04:58;;;;;;;;;;;17.50;58.60;;;13.35;100.00;95060.56;4969576;28;19909;-53
2023/07/28 04:07:24;;;;;;;;;;;17.50;58.70;;;13.35;100.00;95065.91;4973687;28;20048;-48
2023/07/28 04:09:50;;;;;;;;;;;17.50;58.80;;;13.37;100.00;95069.09;4963691;28;19996;-48
2023/07/28 04:12:15;;;;;;;;;;;17.50;58.90;;;13.36;100.00;95064.84;4969004;28;19910;-44
2023/07/28 04:14:41;;;;;;;;;;;17.50;58.90;;;13.34;100.00;95058.97;4969745;28;19914;-50
2023/07/28 04:17:07;;;;;;;;;;;17.50;59.00;;;13.32;100.00;95066.53;4969153;28;20325;-44
2023/07/28 04:19:33;;;;;;;;;;;17.50;59.00;;;13.33;100.00;95071.56;4970212;28;20011;-47
2023/07/28 04:22:00;;;;;;;;;;;17.50;59.00;;;13.32;100.00;95061.97;4963747;28;19909;-46
2023/07/28 04:24:27;;;;;;;;;;;17.50;59.10;;;13.33;100.00;95070.78;4956416;28;19917;-46
2023/07/28 04:26:53;;;;;;;;;;;17.60;59.20;;;13.33;100.00;95068.88;4969273;28;19972;-45
2023/07/28 04:29:19;;;;;;;;;;;17.60;59.10;;;13.39;100.00;95064.25;4968826;28;19955;-43
2023/07/28 04:31:45;;;;;;;;;;;17.60;59.10;;;13.41;100.00;95064.72;4963942;28;20378;-44
2023/07/28 04:34:10;;;;;;;;;;;17.60;59.10;;;13.46;100.00;95066.53;4962331;28;20004;-44
2023/07/28 04:36:36;;;;;;;;;;;17.60;59.20;;;13.48;100.00;95075.88;4966810;28;20276;-47
2023/07/28 04:39:02;;;;;;;;;;;17.70;59.20;;;13.51;100.00;95074.50;4962927;28;19910;-44
2023/07/28 04:41:28;;;;;;;;;;;17.70;59.20;;;13.55;100.00;95065.56;4974797;28;19913;-47
2023/07/28 04:43:53;;;;;;;;;;;17.80;59.20;;;13.62;100.00;95057.94;4962876;28;19917;-45
2023/07/28 04:46:19;;;;;;;;;;;17.80;59.20;;;13.70;100.00;95069.84;4974389;28;19917;-44
2023/07/28 04:48:47;;;;;;;;;;;17.90;59.20;;;13.84;100.00;95064.50;4961938;28;26890;-44
2023/07/28 04:51:12;;;;;;;;;;;18.00;59.20;;;13.91;100.00;95075.59;4969349;28;19914;-45
2023/07/28 04:53:38;;;;;;;;;;;18.10;59.30;;;13.92;100.00;95063.81;4966777;28;19909;-45
2023/07/28 04:56:04;;;;;;;;;;;18.10;59.20;;;13.99;100.00;95069.53;4962355;28;20431;-46
2023/07/28 04:58:30;;;;;;;;;;;18.20;59.20;;;14.06;100.00;95064.56;4965637;28;20315;-47
2023/07/28 05:00:56;;;;;;;;;;;18.20;59.20;;;14.19;100.00;95064.88;4962626;28;20008;-44
2023/07/28 05:03:21;;;;;;;;;;;18.30;59.30;;;14.32;100.00;95064.88;4962990;28;20435;-43
2023/07/28 05:05:47;;;;;;;;;;;18.40;59.30;;;14.48;100.00;95069.91;4971644;28;19909;-45
2023/07/28 05:08:13;;;;;;;;;;;18.50;59.30;;;14.76;100.00;95068.75;4962313;28;19918;-46
2023/07/28 05:10:41;;;;;;;;;;;18.80;59.20;;;14.99;100.00;95068.75;4974390;28;20431;-44
2023/07/28 05:13:06;;;;;;;;;;;18.90;59.10;;;15.31;100.00;95075.75;4962507;28;19917;-44
2023/07/28 05:15:32;;;;;;;;;;;19.20;59.00;;;15.62;100.00;95088.41;4968566;28;19918;-45
2023/07/28 05:17:58;;;;;;;;;;;19.50;58.90;;;15.91;100.00;95090.63;4969646;28;20402;-45
2023/07/28 05:20:23;;;;;;;;;;;19.80;58.80;;;16.10;100.00;95085.78;4962846;28;19909;-45
2023/07/28 05:22:49;;;;;;;;;;;20.00;58.70;;;16.13;99.07;95093.22;4965520;28;19916;-45
2023/07/28 05:25:15;;;;;;;;;;;20.20;58.50;;;16.10;98.84;95088.47;4962636;28;19917;-44
2023/07/28 05:27:41;;;;;;;;;;;20.30;58.40;;;16.09;98.74;95089.59;4962017;28;19914;-44
2023/07/28 05:30:07;;;;;;;;;;;20.30;58.20;;;16.03;98.19;95092.72;4965128;28;19910;-45
2023/07/28 05:32:33;;;;;;;;;;;20.40;58.10;;;16.06;99.50;95084.84;4962824;28;19921;-46
2023/07/28 05:34:59;;;;;;;;;;;20.40;57.80;;;16.34;98.95;95087.28;4976080;28;19913;-44
2023/07/28 05:37:25;;;;;;;;;;;20.70;57.70;;;16.71;97.08;95082.47;4964152;28;19921;-49
2023/07/28 05:39:50;;;;;;;;;;;21.10;57.60;;;17.09;96.54;95094.19;4962336;28;19910;-47
2023/07/28 05:42:16;;;;;;;;;;;21.40;57.50;;;17.31;93.33;95105.91;4973743;28;19952;-45
2023/07/28 05:44:42;;;;;;;;;;;21.60;57.40;;;17.38;90.31;95100.81;4974759;28;19922;-49
2023/07/28 05:47:08;;;;;;;;;;;21.80;57.30;;;17.45;91.09;95103.00;4980739;28;19967;-46
2023/07/28 05:49:34;;;;;;;;;;;21.90;57.20;;;17.45;90.30;95100.31;4970445;28;19963;-48
2023/07/28 05:51:59;;;;;;;;;;;22.00;57.00;;;17.60;91.59;95101.72;4972002;28;19910;-49
2023/07/28 05:54:25;;;;;;;;;;;22.10;56.80;;;17.66;90.54;95097.75;4961729;28;20369;-46
2023/07/28 05:56:51;;;;;;;;;;;22.20;56.70;;;17.70;90.06;95101.38;4963268;28;20285;-47
2023/07/28 05:59:16;;;;;;;;;;;22.20;56.50;;;17.70;89.91;95099.47;4958441;28;19910;-48
2023/07/28 06:01:42;;;;;;;;;;;22.30;56.50;;;17.77;90.34;95104.41;4956313;28;19937;-46
2023/07/28 06:04:08;;;;;;;;;;;22.40;56.30;;;18.07;88.03;95113.31;4973053;28;19910;-48
2023/07/28 06:06:33;;;;;;;;;;;22.70;56.10;;;18.47;88.04;95110.28;4966794;28;19913;-45
2023/07/28 06:08:59;;;;;;;;;;;23.10;56.00;;;18.71;83.69;95107.00;4958134;28;20380;-47
2023/07/28 06:11:26;;;;;;;;;;;23.40;55.90;;;18.90;84.38;95109.28;4963207;28;20290;-45
2023/07/28 06:13:51;;;;;;;;;;;23.60;55.70;;;19.08;84.10;95108.00;4973188;28;20040;-45
2023/07/28 06:16:17;;;;;;;;;;;23.80;55.40;;;19.26;82.29;95124.84;4973390;28;20004;-45
2023/07/28 06:18:43;;;;;;;;;;;24.00;55.20;;;19.38;78.33;95116.81;4964130;28;19920;-44
2023/07/28 06:21:09;;;;;;;;;;;24.20;55.00;;;19.42;79.73;95117.72;4974127;28;19932;-47
2023/07/28 06:23:35;;;;;;;;;;;24.30;54.80;;;19.54;81.67;95116.97;4969779;28;19914;-44
2023/07/28 06:26:01;;;;;;;;;;;24.40;54.50;;;19.87;81.22;95113.50;4967894;28;19959;-45
2023/07/28 06:28:26;;;;;;;;;;;24.80;54.30;;;20.21;78.00;95115.00;4963103;28;19910;-45
2023/07/28 06:30:56;;;;;;;;;;;25.30;54.00;;;20.46;74.47;95123.91;4974066;28;19914;-46
2023/07/28 06:33:22;;;;;;;;;;;25.60;53.90;;;20.66;72.62;95126.88;4973740;28;19916;-47
2023/07/28 06:35:47;;;;;;;;;;;25.80;53.60;;;20.87;70.09;95122.13;4972407;28;19913;-45
2023/07/28 06:38:13;;;;;;;;;;;26.10;53.30;;;21.19;70.99;95124.97;4973742;28;19914;-46
2023/07/28 06:40:39;;;;;;;;;;;26.40;53.00;;;21.45;68.55;95127.28;4972767;28;19909;-45
2023/07/28 06:43:07;;;;;;;;;;;26.70;52.70;;;21.67;66.53;95132.13;4966993;28;19910;-44
2023/07/28 06:45:33;;;;;;;;;;;27.00;52.40;;;22.02;67.96;95128.00;4967396;28;20385;-44
2023/07/28 06:47:58;;;;;;;;;;;27.30;51.90;;;22.47;64.49;95129.53;4972470;28;19909;-44
2023/07/28 06:50:24;;;;;;;;;;;27.80;51.60;;;22.90;64.41;95136.72;4973558;28;19910;-45
2023/07/28 06:52:50;;;;;;;;;;;28.30;51.20;;;23.29;60.49;95132.19;4972612;28;19939;-46
2023/07/28 06:55:21;;;;;;;;;;;28.70;50.80;;;23.71;60.01;95127.97;4960667;28;19914;-46
2023/07/28 06:57:49;;;;;;;;;;;29.20;50.50;;;24.16;57.32;95132.69;4973550;28;20079;-48
2023/07/28 07:00:15;;;;;;;;;;;29.70;50.10;;;24.53;56.09;95134.09;4972323;28;19916;-46
2023/07/28 07:02:41;;;;;;;;;;;30.20;49.40;;;24.57;56.04;95141.19;4973199;28;20309;-48
2023/07/28 07:05:07;;;;;;;;;;;30.50;48.80;;;24.24;55.54;95134.38;4972212;28;19921;-49
2023/07/28 07:07:33;;;;;;;;;;;30.50;48.20;;;24.24;56.39;95134.38;4965156;28;20404;-49
2023/07/28 07:09:59;;;;;;;;;;;30.40;47.40;;;24.13;56.57;95141.59;4968462;28;19910;-45
2023/07/28 07:12:25;;;;;;;;;;;30.30;46.80;;;24.02;56.32;95137.88;4972267;28;19909;-47
2023/07/28 07:14:51;;;;;;;;;;;30.00;46.70;;;23.90;56.46;95146.97;4972643;28;19921;-44
2023/07/28 07:17:17;;;;;;;;;;;29.80;46.60;;;23.74;57.12;95143.56;4964132;28;19910;-45
2023/07/28 07:19:43;;;;;;;;;;;29.60;46.60;;;23.63;58.11;95137.09;4968287;28;20095;-44
2023/07/28 07:22:09;;;;;;;;;;;29.30;46.60;;;23.60;57.89;95140.53;4969654;28;20404;-53
2023/07/28 07:24:38;;;;;;;;;;;29.20;46.60;;;23.38;59.69;95140.13;4966800;28;20081;-44
2023/07/28 07:27:04;;;;;;;;;;;29.20;46.40;;;23.76;59.20;95147.50;4965749;28;19909;-47
2023/07/28 07:29:30;;;;;;;;;;;29.20;46.40;;;23.82;57.92;95136.31;4966212;28;19910;-46
2023/07/28 07:31:56;;;;;;;;;;;29.10;46.60;;;23.91;57.94;95134.16;4969889;28;19916;-45
2023/07/28 07:34:23;;;;;;;;;;;29.10;46.60;;;23.91;57.61;95139.59;4970975;28;19914;-46
2023/07/28 07:36:49;;;;;;;;;;;29.00;46.70;;;23.90;58.47;95135.31;4972349;28;19942;-45
2023/07/28 07:39:16;;;;;;;;;;;28.90;46.60;;;23.75;57.23;95136.97;4961353;28;19964;-49
2023/07/28 07:41:41;;;;;;;;;;;29.00;46.90;;;23.78;56.90;95142.50;4958041;28;19946;-49
2023/07/28 07:44:10;;;;;;;;;;;29.10;46.00;;;23.96;57.33;95136.59;4971337;28;20012;-51
2023/07/28 07:46:36;;;;;;;;;;;29.30;45.60;;;24.39;56.39;95138.13;4969155;28;19953;-52
2023/07/28 07:49:01;;;;;;;;;;;29.70;45.60;;;24.60;55.63;95142.34;4956752;28;19995;-54
2023/07/28 07:51:27;;;;;;;;;;;30.00;45.40;;;24.81;54.16;95141.91;4965424;28;19996;-52
2023/07/28 07:53:53;;;;;;;;;;;30.30;45.00;;;25.06;51.88;95140.31;4971721;28;20487;-54
2023/07/28 07:56:19;;;;;;;;;;;30.70;44.60;;;25.16;52.04;95152.56;4972999;28;20385;-55
2023/07/28 07:58:45;;;;;;;;;;;31.00;44.10;;;25.30;51.50;95151.97;4972051;28;19936;-55
2023/07/28 08:01:11;;;;;;;;;;;31.20;43.40;;;25.51;51.23;95146.00;4959718;28;20134;-48
2023/07/28 08:03:37;;;;;;;;;;;31.40;43.10;;;25.74;51.02;95138.50;4972290;28;19909;-53
2023/07/28 08:06:03;;;;;;;;;;;31.50;42.70;;;25.61;50.02;95154.31;4970377;28;20008;-52
2023/07/28 08:08:30;;;;;;;;;;;31.50;42.40;;;25.48;50.86;95144.81;4961219;28;19956;-52
2023/07/28 08:10:56;;;;;;;;;;;31.60;41.70;;;25.69;50.50;95143.50;4970453;28;19914;-50
2023/07/28 08:13:22;;;;;;;;;;;31.60;41.50;;;26.05;50.28;95147.44;4961072;28;19909;-47
2023/07/28 08:15:47;;;;;;;;;;;31.80;41.40;;;26.33;49.43;95146.13;4971756;28;19936;-49
2023/07/28 08:18:14;;;;;;;;;;;32.00;41.50;;;26.90;48.91;95138.41;4963424;28;20008;-52
2023/07/28 08:20:40;;;;;;;;;;;32.30;41.60;;;27.34;47.54;95137.53;4970634;28;19910;-49
2023/07/28 08:23:06;;;;;;;;;;;32.70;41.60;;;27.42;46.55;95139.13;4971799;28;19909;-49
2023/07/28 08:25:31;;;;;;;;;;;33.00;41.30;;;27.57;46.62;95140.75;4972400;28;20285;-50
2023/07/28 08:27:57;;;;;;;;;;;33.30;40.90;;;27.45;45.68;95141.91;4975690;28;19916;-53
2023/07/28 08:30:23;;;;;;;;;;;33.60;40.30;;;27.83;45.74;95145.19;4975533;28;20246;-52
2023/07/28 08:32:49;;;;;;;;;;;33.70;40.10;;;28.07;44.68;95153.84;4975818;28;19914;-53
2023/07/28 08:35:15;;;;;;;;;;;33.90;39.90;;;27.86;45.00;95143.59;4974125;28;19914;-50
2023/07/28 08:37:41;;;;;;;;;;;34.00;39.00;;;27.80;44.88;95150.66;4975444;28;20008;-52
2023/07/28 08:40:08;;;;;;;;;;;34.10;38.70;;;27.60;46.14;95155.63;4976114;28;19949;-50
2023/07/28 08:42:39;;;;;;;;;;;34.30;38.70;;;27.74;45.43;95144.75;4975110;28;19910;-49
2023/07/28 08:45:08;;;;;;;;;;;34.50;38.30;;;28.21;44.11;95151.16;4975390;28;19975;-49
2023/07/28 08:47:36;;;;;;;;;;;34.60;38.20;;;28.09;44.70;95146.81;4974534;28;20008;-50
2023/07/28 08:50:03;;;;;;;;;;;34.70;37.60;;;28.55;43.22;95140.66;4975842;28;20402;-49
2023/07/28 08:52:28;;;;;;;;;;;34.90;37.60;;;28.90;42.83;95143.75;4973807;28;19933;-52
2023/07/28 08:54:54;;;;;;;;;;;35.20;37.40;;;28.64;43.08;95139.44;4974336;28;19967;-50
2023/07/28 08:57:20;;;;;;;;;;;35.20;36.60;;;28.89;42.86;95140.22;4962434;28;19956;-52
2023/07/28 08:59:49;;;;;;;;;;;35.40;36.70;;;29.03;42.65;95140.25;4963970;28;19910;-51
2023/07/28 09:02:18;;;;;;;;;;;35.50;36.50;;;29.20;41.73;95149.59;4972522;28;19924;-51
2023/07/28 09:04:47;;;;;;;;;;;35.80;36.40;;;29.15;42.92;95146.50;4974356;28;19913;-49
2023/07/28 09:07:13;;;;;;;;;;;35.70;36.00;;;29.27;41.92;95149.59;4962244;28;19914;-51
2023/07/28 09:09:41;;;;;;;;;;;35.70;36.20;;;29.48;40.76;95145.22;4974293;28;20340;-51
2023/07/28 09:12:08;;;;;;;;;;;36.00;36.20;;;29.95;40.05;95143.06;4968344;28;19917;-48
2023/07/28 09:14:36;;;;;;;;;;;36.30;36.20;;;30.14;40.06;95144.53;4968177;28;20352;-49
2023/07/28 09:17:10;;;;;;;;;;;36.80;35.60;;;30.09;39.56;95136.75;4961806;28;19936;-49
2023/07/28 09:19:53;;;;;;;;;;;37.00;34.80;;;30.44;40.18;95138.50;4964334;28;19910;-52
2023/07/28 09:22:22;;;;;;;;;;;37.10;34.70;;;30.67;40.31;95146.94;4969585;28;19910;-56
2023/07/28 09:24:50;;;;;;;;;;;37.40;34.60;;;31.03;39.21;95151.38;4969016;28;20336;-55
2023/07/28 09:27:24;;;;;;;;;;;37.60;34.60;;;31.27;37.99;95141.31;4955261;28;19960;-55
2023/07/28 09:29:52;;;;;;;;;;;38.00;34.50;;;31.20;38.13;95139.41;4965992;28;20344;-54
2023/07/28 09:32:36;;;;;;;;;;;38.10;34.20;;;31.36;37.96;95147.13;4963703;28;19917;-52
2023/07/28 09:35:10;;;;;;;;;;;38.50;34.00;;;31.71;37.90;95143.19;4972597;28;19955;-56
2023/07/28 09:37:45;;;;;;;;;;;38.70;33.40;;;31.86;37.05;95143.78;4972636;28;19949;-56
2023/07/28 09:40:22;;;;;;;;;;;39.00;32.90;;;31.76;37.40;95139.22;4973773;28;20319;-49
2023/07/28 09:42:50;;;;;;;;;;;39.10;32.30;;;31.20;36.32;95135.88;4960529;28;19916;-54
2023/07/28 09:45:19;;;;;;;;;;;39.20;31.10;;;31.20;36.63;95136.66;4958443;28;19924;-56
2023/07/28 09:47:47;;;;;;;;;;;39.20;30.80;;;31.34;36.91;95122.81;4960809;28;20292;-55
2023/07/28 09:50:16;;;;;;;;;;;39.10;30.60;;;31.48;36.89;95130.09;4966588;28;19921;-56
2023/07/28 09:52:57;;;;;;;;;;;39.20;30.70;;;30.94;37.94;95129.09;4963366;28;20423;-53
2023/07/28 09:55:25;;;;;;;;;;;39.10;30.10;;;31.55;37.27;95126.47;4970641;28;20371;-52
2023/07/28 09:57:54;;;;;;;;;;;38.90;30.30;;;31.52;37.36;95128.06;4963275;28;19957;-56
2023/07/28 10:00:22;;;;;;;;;;;38.90;30.70;;;31.45;37.17;95119.91;4968102;28;20292;-54
2023/07/28 10:02:50;;;;;;;;;;;38.90;30.70;;;31.52;36.62;95110.78;4961869;28;19914;-53
2023/07/28 10:05:16;;;;;;;;;;;38.90;30.40;;;31.43;37.21;95111.28;4966231;28;19909;-56
2023/07/28 10:07:45;;;;;;;;;;;38.90;30.40;;;31.45;36.75;95114.41;4966806;28;19914;-54
2023/07/28 10:10:14;;;;;;;;;;;38.90;30.60;;;31.21;36.60;95115.44;4971717;28;20373;-53
2023/07/28 10:12:50;;;;;;;;;;;38.70;30.30;;;30.99;36.25;95107.41;4972880;28;19949;-53
2023/07/28 10:15:26;;;;;;;;;;;38.50;30.30;;;30.87;37.55;95116.97;4960312;28;19918;-54
2023/07/28 10:17:59;;;;;;;;;;;38.30;30.30;;;30.78;37.05;95121.38;4970777;28;19979;-52
2023/07/28 10:20:36;;;;;;;;;;;38.10;30.50;;;30.10;37.98;95133.59;4967419;28;19909;-54
2023/07/28 10:23:04;;;;;;;;;;;37.80;30.20;;;29.91;39.59;95123.88;4965575;28;19914;-51
2023/07/28 10:25:36;;;;;;;;;;;37.50;30.20;;;30.00;38.56;95120.72;4966823;28;19910;-54
2023/07/28 10:28:03;;;;;;;;;;;37.20;30.60;;;30.33;38.75;95129.53;4959705;28;19921;-53
2023/07/28 10:30:38;;;;;;;;;;;37.00;30.90;;;30.47;38.44;95123.16;4965462;28;19964;-54
2023/07/28 10:33:04;;;;;;;;;;;37.10;31.10;;;30.56;38.52;95120.75;4966636;28;19937;-54
2023/07/28 10:35:33;;;;;;;;;;;37.10;31.00;;;30.37;37.93;95114.59;4964997;28;19918;-49
2023/07/28 10:38:30;;;;;;;;;;;37.10;31.20;;;30.41;37.57;95114.56;4966208;28;20000;-56
2023/07/28 10:41:13;;;;;;;;;;;37.20;31.30;;;30.28;38.03;95122.53;4969866;28;19909;-52
2023/07/28 10:43:40;;;;;;;;;;;37.30;31.10;;;30.20;37.49;95116.28;4962308;28;19910;-51
2023/07/28 10:46:10;;;;;;;;;;;37.30;31.00;;;30.28;37.78;95114.28;4959679;28;20004;-54
2023/07/28 10:48:41;;;;;;;;;;;37.20;31.40;;;30.23;37.55;95108.44;4962744;28;19910;-51
2023/07/28 10:51:07;;;;;;;;;;;37.20;30.90;;;30.14;38.10;95106.09;4965742;28;20012;-56
2023/07/28 10:53:33;;;;;;;;;;;37.30;30.90;;;29.82;38.19;95098.84;4966976;28;20048;-48
2023/07/28 10:56:03;;;;;;;;;;;37.10;30.60;;;30.06;38.65;95099.09;4959495;28;19914;-48
2023/07/28 10:58:30;;;;;;;;;;;37.20;31.40;;;29.62;38.04;95098.56;4962767;28;20321;-47
2023/07/28 11:00:56;;;;;;;;;;;37.10;30.40;;;29.38;38.33;95097.44;4968599;28;19942;-47
2023/07/28 11:03:23;;;;;;;;;;;37.10;30.20;;;29.70;37.96;95091.06;4963498;28;19945;-47
2023/07/28 11:05:50;;;;;;;;;;;37.00;30.10;;;29.24;38.55;95100.25;4962797;28;19910;-49
2023/07/28 11:08:16;;;;;;;;;;;36.90;29.80;;;29.46;38.57;95096.25;4963504;28;19910;-47
2023/07/28 11:10:42;;;;;;;;;;;36.70;29.90;;;29.54;39.00;95096.97;4957253;28;19925;-47
2023/07/28 11:13:08;;;;;;;;;;;36.60;30.00;;;29.40;38.67;95092.34;4972840;28;19910;-47
2023/07/28 11:15:35;;;;;;;;;;;36.50;30.10;;;29.19;39.78;95095.94;4972266;28;20297;-50